sensor_id;sensor_type;location;lat;lon;timestamp;P1;durP1;ratioP1;P2;durP2;ratioP2
7446;SDS011;3765;47.962;7.952;2022-12-07T00:01:36;29.23;;;18.67;;
7446;SDS011;3765;47.962;7.952;2022-12-07T00:04:07;26.17;;;17.70;;
7446;SDS011;3765;47.962;7.952;2022-12-07T00:06:38;26.67;;;18.03;;
7446;SDS011;3765;47.962;7.952;2022-12-07T00:09:09;29.30;;;18.60;;
7446;SDS011;3765;47.962;7.952;2022-12-07T00:11:40;31.30;;;19.33;;
7446;SDS011;3765;47.962;7.952;2022-12-07T00:14:10;30.70;;;19.63;;
7446;SDS011;3765;47.962;7.952;2022-12-07T00:16:40;36.83;;;19.50;;
7446;SDS011;3765;47.962;7.952;2022-12-07T00:19:10;28.60;;;18.23;;
7446;SDS011;3765;47.962;7.952;2022-12-07T00:21:40;26.07;;;18.83;;
7446;SDS011;3765;47.962;7.952;2022-12-07T00:24:09;28.23;;;19.70;;
7446;SDS011;3765;47.962;7.952;2022-12-07T00:26:39;32.03;;;18.93;;
7446;SDS011;3765;47.962;7.952;2022-12-07T00:29:09;30.13;;;20.73;;
7446;SDS011;3765;47.962;7.952;2022-12-07T00:31:42;30.60;;;20.37;;
7446;SDS011;3765;47.962;7.952;2022-12-07T00:34:13;32.23;;;21.50;;
7446;SDS011;3765;47.962;7.952;2022-12-07T00:36:43;30.23;;;19.67;;
7446;SDS011;3765;47.962;7.952;2022-12-07T00:39:11;30.70;;;20.17;;
7446;SDS011;3765;47.962;7.952;2022-12-07T00:41:39;29.87;;;19.93;;
7446;SDS011;3765;47.962;7.952;2022-12-07T00:44:08;31.43;;;21.03;;
7446;SDS011;3765;47.962;7.952;2022-12-07T00:46:36;30.23;;;19.80;;
7446;SDS011;3765;47.962;7.952;2022-12-07T00:49:04;32.73;;;21.70;;
7446;SDS011;3765;47.962;7.952;2022-12-07T00:51:34;28.13;;;19.80;;
7446;SDS011;3765;47.962;7.952;2022-12-07T00:54:03;31.50;;;19.90;;
7446;SDS011;3765;47.962;7.952;2022-12-07T00:56:31;28.77;;;19.60;;
7446;SDS011;3765;47.962;7.952;2022-12-07T00:59:00;28.13;;;19.70;;
7446;SDS011;3765;47.962;7.952;2022-12-07T01:01:31;29.13;;;20.07;;
7446;SDS011;3765;47.962;7.952;2022-12-07T01:04:01;34.30;;;21.97;;
7446;SDS011;3765;47.962;7.952;2022-12-07T01:06:29;29.23;;;20.40;;
7446;SDS011;3765;47.962;7.952;2022-12-07T01:08:59;29.40;;;19.93;;
7446;SDS011;3765;47.962;7.952;2022-12-07T01:11:29;31.00;;;19.20;;
7446;SDS011;3765;47.962;7.952;2022-12-07T01:13:58;28.23;;;20.00;;
7446;SDS011;3765;47.962;7.952;2022-12-07T01:16:27;29.30;;;21.10;;
7446;SDS011;3765;47.962;7.952;2022-12-07T01:18:58;29.23;;;19.40;;
7446;SDS011;3765;47.962;7.952;2022-12-07T01:21:28;31.30;;;20.83;;
7446;SDS011;3765;47.962;7.952;2022-12-07T01:24:02;28.37;;;19.80;;
7446;SDS011;3765;47.962;7.952;2022-12-07T01:26:32;27.13;;;17.80;;
7446;SDS011;3765;47.962;7.952;2022-12-07T01:29:00;35.97;;;17.27;;
7446;SDS011;3765;47.962;7.952;2022-12-07T01:31:28;25.97;;;17.73;;
7446;SDS011;3765;47.962;7.952;2022-12-07T01:33:57;26.83;;;19.40;;
7446;SDS011;3765;47.962;7.952;2022-12-07T01:36:27;29.50;;;18.70;;
7446;SDS011;3765;47.962;7.952;2022-12-07T01:38:57;27.20;;;18.30;;
7446;SDS011;3765;47.962;7.952;2022-12-07T01:41:28;28.10;;;18.33;;
7446;SDS011;3765;47.962;7.952;2022-12-07T01:44:11;25.80;;;17.83;;
7446;SDS011;3765;47.962;7.952;2022-12-07T01:46:49;30.47;;;19.50;;
7446;SDS011;3765;47.962;7.952;2022-12-07T01:49:21;26.67;;;18.27;;
7446;SDS011;3765;47.962;7.952;2022-12-07T01:51:55;28.23;;;19.13;;
7446;SDS011;3765;47.962;7.952;2022-12-07T01:54:28;27.03;;;18.60;;
7446;SDS011;3765;47.962;7.952;2022-12-07T01:56:58;29.20;;;19.60;;
7446;SDS011;3765;47.962;7.952;2022-12-07T01:59:27;26.80;;;18.53;;
7446;SDS011;3765;47.962;7.952;2022-12-07T02:01:55;31.23;;;18.53;;
7446;SDS011;3765;47.962;7.952;2022-12-07T02:04:24;30.33;;;19.37;;
7446;SDS011;3765;47.962;7.952;2022-12-07T02:06:52;30.53;;;19.13;;
7446;SDS011;3765;47.962;7.952;2022-12-07T02:09:22;25.87;;;18.60;;
7446;SDS011;3765;47.962;7.952;2022-12-07T02:11:50;32.40;;;20.70;;
7446;SDS011;3765;47.962;7.952;2022-12-07T02:14:20;31.17;;;20.50;;
7446;SDS011;3765;47.962;7.952;2022-12-07T02:16:53;31.90;;;21.00;;
7446;SDS011;3765;47.962;7.952;2022-12-07T02:22:34;29.73;;;20.20;;
7446;SDS011;3765;47.962;7.952;2022-12-07T02:25:21;29.30;;;19.60;;
7446;SDS011;3765;47.962;7.952;2022-12-07T02:27:58;30.73;;;20.67;;
7446;SDS011;3765;47.962;7.952;2022-12-07T02:30:34;32.13;;;20.37;;
7446;SDS011;3765;47.962;7.952;2022-12-07T02:33:07;31.63;;;19.37;;
7446;SDS011;3765;47.962;7.952;2022-12-07T02:35:41;33.87;;;20.67;;
7446;SDS011;3765;47.962;7.952;2022-12-07T02:38:13;31.30;;;20.50;;
7446;SDS011;3765;47.962;7.952;2022-12-07T02:40:54;32.60;;;20.13;;
7446;SDS011;3765;47.962;7.952;2022-12-07T02:43:27;31.97;;;20.60;;
7446;SDS011;3765;47.962;7.952;2022-12-07T02:46:01;34.63;;;19.90;;
7446;SDS011;3765;47.962;7.952;2022-12-07T02:48:32;34.60;;;19.80;;
7446;SDS011;3765;47.962;7.952;2022-12-07T02:51:01;39.80;;;24.53;;
7446;SDS011;3765;47.962;7.952;2022-12-07T02:53:30;35.93;;;24.23;;
7446;SDS011;3765;47.962;7.952;2022-12-07T02:56:00;38.83;;;25.53;;
7446;SDS011;3765;47.962;7.952;2022-12-07T02:58:37;42.37;;;25.40;;
7446;SDS011;3765;47.962;7.952;2022-12-07T03:01:21;40.20;;;26.33;;
7446;SDS011;3765;47.962;7.952;2022-12-07T03:04:00;45.70;;;30.00;;
7446;SDS011;3765;47.962;7.952;2022-12-07T03:06:42;44.67;;;29.47;;
7446;SDS011;3765;47.962;7.952;2022-12-07T03:09:15;48.70;;;32.40;;
7446;SDS011;3765;47.962;7.952;2022-12-07T03:11:50;52.00;;;32.60;;
7446;SDS011;3765;47.962;7.952;2022-12-07T03:14:23;47.13;;;30.50;;
7446;SDS011;3765;47.962;7.952;2022-12-07T03:16:57;48.53;;;32.50;;
7446;SDS011;3765;47.962;7.952;2022-12-07T03:19:30;46.17;;;30.60;;
7446;SDS011;3765;47.962;7.952;2022-12-07T03:22:02;51.03;;;31.17;;
7446;SDS011;3765;47.962;7.952;2022-12-07T03:24:33;48.30;;;30.57;;
7446;SDS011;3765;47.962;7.952;2022-12-07T03:27:06;43.67;;;29.40;;
7446;SDS011;3765;47.962;7.952;2022-12-07T03:29:40;50.63;;;29.97;;
7446;SDS011;3765;47.962;7.952;2022-12-07T03:32:14;46.47;;;30.77;;
7446;SDS011;3765;47.962;7.952;2022-12-07T03:34:50;46.53;;;30.07;;
7446;SDS011;3765;47.962;7.952;2022-12-07T03:37:26;45.70;;;29.60;;
7446;SDS011;3765;47.962;7.952;2022-12-07T03:40:02;45.17;;;30.10;;
7446;SDS011;3765;47.962;7.952;2022-12-07T03:42:35;42.83;;;28.97;;
7446;SDS011;3765;47.962;7.952;2022-12-07T03:45:03;45.70;;;30.03;;
7446;SDS011;3765;47.962;7.952;2022-12-07T03:47:34;43.47;;;28.20;;
7446;SDS011;3765;47.962;7.952;2022-12-07T03:50:11;42.77;;;27.27;;
7446;SDS011;3765;47.962;7.952;2022-12-07T03:52:44;41.70;;;26.30;;
7446;SDS011;3765;47.962;7.952;2022-12-07T03:55:17;37.13;;;23.50;;
7446;SDS011;3765;47.962;7.952;2022-12-07T03:57:50;26.60;;;18.43;;
7446;SDS011;3765;47.962;7.952;2022-12-07T04:00:22;30.10;;;18.33;;
7446;SDS011;3765;47.962;7.952;2022-12-07T04:02:52;26.20;;;15.80;;
7446;SDS011;3765;47.962;7.952;2022-12-07T04:05:22;22.90;;;14.80;;
7446;SDS011;3765;47.962;7.952;2022-12-07T04:07:51;22.37;;;15.07;;
7446;SDS011;3765;47.962;7.952;2022-12-07T04:10:19;22.63;;;13.73;;
7446;SDS011;3765;47.962;7.952;2022-12-07T04:12:47;23.17;;;13.53;;
7446;SDS011;3765;47.962;7.952;2022-12-07T04:15:15;24.77;;;15.07;;
7446;SDS011;3765;47.962;7.952;2022-12-07T04:17:44;23.23;;;14.10;;
7446;SDS011;3765;47.962;7.952;2022-12-07T04:20:13;21.70;;;14.00;;
7446;SDS011;3765;47.962;7.952;2022-12-07T04:22:42;24.00;;;14.90;;
7446;SDS011;3765;47.962;7.952;2022-12-07T04:25:10;26.20;;;14.23;;
7446;SDS011;3765;47.962;7.952;2022-12-07T04:27:38;24.17;;;15.67;;
7446;SDS011;3765;47.962;7.952;2022-12-07T04:30:07;23.63;;;13.87;;
7446;SDS011;3765;47.962;7.952;2022-12-07T04:32:35;23.90;;;15.33;;
7446;SDS011;3765;47.962;7.952;2022-12-07T04:35:04;25.20;;;15.47;;
7446;SDS011;3765;47.962;7.952;2022-12-07T04:37:34;29.93;;;16.00;;
7446;SDS011;3765;47.962;7.952;2022-12-07T04:40:02;21.47;;;14.13;;
7446;SDS011;3765;47.962;7.952;2022-12-07T04:42:31;22.33;;;14.03;;
7446;SDS011;3765;47.962;7.952;2022-12-07T04:44:59;22.60;;;14.20;;
7446;SDS011;3765;47.962;7.952;2022-12-07T04:47:28;19.70;;;13.10;;
7446;SDS011;3765;47.962;7.952;2022-12-07T04:49:56;19.50;;;12.70;;
7446;SDS011;3765;47.962;7.952;2022-12-07T04:52:25;18.30;;;12.57;;
7446;SDS011;3765;47.962;7.952;2022-12-07T04:54:54;21.77;;;11.63;;
7446;SDS011;3765;47.962;7.952;2022-12-07T04:57:23;18.80;;;11.90;;
7446;SDS011;3765;47.962;7.952;2022-12-07T04:59:51;18.67;;;12.57;;
7446;SDS011;3765;47.962;7.952;2022-12-07T05:02:19;20.90;;;12.40;;
7446;SDS011;3765;47.962;7.952;2022-12-07T05:04:47;19.30;;;12.20;;
7446;SDS011;3765;47.962;7.952;2022-12-07T05:07:15;19.67;;;12.67;;
7446;SDS011;3765;47.962;7.952;2022-12-07T05:09:44;22.53;;;11.97;;
7446;SDS011;3765;47.962;7.952;2022-12-07T05:12:13;21.53;;;12.40;;
7446;SDS011;3765;47.962;7.952;2022-12-07T05:14:41;19.33;;;12.20;;
7446;SDS011;3765;47.962;7.952;2022-12-07T05:17:09;19.70;;;13.20;;
7446;SDS011;3765;47.962;7.952;2022-12-07T05:19:38;16.40;;;11.50;;
7446;SDS011;3765;47.962;7.952;2022-12-07T05:22:06;18.53;;;10.50;;
7446;SDS011;3765;47.962;7.952;2022-12-07T05:24:34;17.07;;;11.27;;
7446;SDS011;3765;47.962;7.952;2022-12-07T05:27:02;17.73;;;10.90;;
7446;SDS011;3765;47.962;7.952;2022-12-07T05:29:32;18.43;;;10.83;;
7446;SDS011;3765;47.962;7.952;2022-12-07T05:32:00;18.10;;;11.20;;
7446;SDS011;3765;47.962;7.952;2022-12-07T05:34:29;15.67;;;9.70;;
7446;SDS011;3765;47.962;7.952;2022-12-07T05:36:57;15.63;;;9.57;;
7446;SDS011;3765;47.962;7.952;2022-12-07T05:39:25;15.73;;;10.13;;
7446;SDS011;3765;47.962;7.952;2022-12-07T05:41:53;14.70;;;9.00;;
7446;SDS011;3765;47.962;7.952;2022-12-07T05:44:42;16.00;;;9.40;;
7446;SDS011;3765;47.962;7.952;2022-12-07T05:47:11;16.87;;;8.73;;
7446;SDS011;3765;47.962;7.952;2022-12-07T05:49:41;19.00;;;10.10;;
7446;SDS011;3765;47.962;7.952;2022-12-07T05:52:09;15.63;;;10.90;;
7446;SDS011;3765;47.962;7.952;2022-12-07T05:54:37;16.37;;;9.13;;
7446;SDS011;3765;47.962;7.952;2022-12-07T05:57:06;18.10;;;9.80;;
7446;SDS011;3765;47.962;7.952;2022-12-07T05:59:34;17.00;;;9.80;;
7446;SDS011;3765;47.962;7.952;2022-12-07T06:02:03;14.53;;;9.40;;
7446;SDS011;3765;47.962;7.952;2022-12-07T06:04:34;14.87;;;9.50;;
7446;SDS011;3765;47.962;7.952;2022-12-07T06:07:03;17.00;;;9.77;;
7446;SDS011;3765;47.962;7.952;2022-12-07T06:09:32;15.53;;;9.70;;
7446;SDS011;3765;47.962;7.952;2022-12-07T06:12:01;13.17;;;8.17;;
7446;SDS011;3765;47.962;7.952;2022-12-07T06:14:48;12.37;;;7.77;;
7446;SDS011;3765;47.962;7.952;2022-12-07T06:17:18;14.20;;;8.43;;
7446;SDS011;3765;47.962;7.952;2022-12-07T06:19:46;15.70;;;9.73;;
7446;SDS011;3765;47.962;7.952;2022-12-07T06:22:14;19.13;;;10.50;;
7446;SDS011;3765;47.962;7.952;2022-12-07T06:24:42;21.73;;;11.43;;
7446;SDS011;3765;47.962;7.952;2022-12-07T06:27:10;20.13;;;11.47;;
7446;SDS011;3765;47.962;7.952;2022-12-07T06:29:39;18.00;;;11.37;;
7446;SDS011;3765;47.962;7.952;2022-12-07T06:32:07;19.00;;;12.37;;
7446;SDS011;3765;47.962;7.952;2022-12-07T06:34:37;42.03;;;24.73;;
7446;SDS011;3765;47.962;7.952;2022-12-07T06:37:05;30.63;;;20.00;;
7446;SDS011;3765;47.962;7.952;2022-12-07T06:39:33;25.53;;;15.70;;
7446;SDS011;3765;47.962;7.952;2022-12-07T06:42:01;16.20;;;9.97;;
7446;SDS011;3765;47.962;7.952;2022-12-07T06:44:30;16.07;;;10.10;;
7446;SDS011;3765;47.962;7.952;2022-12-07T06:46:59;17.30;;;9.47;;
7446;SDS011;3765;47.962;7.952;2022-12-07T06:49:48;15.87;;;10.00;;
7446;SDS011;3765;47.962;7.952;2022-12-07T06:52:16;17.53;;;11.00;;
7446;SDS011;3765;47.962;7.952;2022-12-07T06:54:45;16.90;;;9.80;;
7446;SDS011;3765;47.962;7.952;2022-12-07T06:57:13;15.40;;;8.37;;
7446;SDS011;3765;47.962;7.952;2022-12-07T06:59:41;13.53;;;7.43;;
7446;SDS011;3765;47.962;7.952;2022-12-07T07:02:10;13.93;;;7.90;;
7446;SDS011;3765;47.962;7.952;2022-12-07T07:04:38;13.90;;;6.80;;
7446;SDS011;3765;47.962;7.952;2022-12-07T07:07:07;14.40;;;8.17;;
7446;SDS011;3765;47.962;7.952;2022-12-07T07:09:35;14.87;;;8.47;;
7446;SDS011;3765;47.962;7.952;2022-12-07T07:12:04;14.80;;;7.97;;
7446;SDS011;3765;47.962;7.952;2022-12-07T07:14:32;13.20;;;7.70;;
7446;SDS011;3765;47.962;7.952;2022-12-07T07:17:00;14.43;;;7.10;;
7446;SDS011;3765;47.962;7.952;2022-12-07T07:19:28;15.37;;;7.97;;
7446;SDS011;3765;47.962;7.952;2022-12-07T07:21:57;25.87;;;12.40;;
7446;SDS011;3765;47.962;7.952;2022-12-07T07:24:26;16.90;;;9.70;;
7446;SDS011;3765;47.962;7.952;2022-12-07T07:26:54;20.40;;;11.07;;
7446;SDS011;3765;47.962;7.952;2022-12-07T07:29:22;20.07;;;10.97;;
7446;SDS011;3765;47.962;7.952;2022-12-07T07:31:51;22.33;;;10.73;;
7446;SDS011;3765;47.962;7.952;2022-12-07T07:34:19;26.70;;;13.63;;
7446;SDS011;3765;47.962;7.952;2022-12-07T07:36:47;38.47;;;14.43;;
7446;SDS011;3765;47.962;7.952;2022-12-07T07:39:16;18.17;;;10.00;;
7446;SDS011;3765;47.962;7.952;2022-12-07T07:41:45;15.93;;;9.10;;
7446;SDS011;3765;47.962;7.952;2022-12-07T07:44:14;15.50;;;8.23;;
7446;SDS011;3765;47.962;7.952;2022-12-07T07:46:42;19.83;;;10.67;;
7446;SDS011;3765;47.962;7.952;2022-12-07T07:49:10;21.60;;;13.47;;
7446;SDS011;3765;47.962;7.952;2022-12-07T07:51:39;27.17;;;16.87;;
7446;SDS011;3765;47.962;7.952;2022-12-07T07:54:07;20.63;;;12.67;;
7446;SDS011;3765;47.962;7.952;2022-12-07T07:56:35;19.87;;;12.27;;
7446;SDS011;3765;47.962;7.952;2022-12-07T07:59:04;40.47;;;15.90;;
7446;SDS011;3765;47.962;7.952;2022-12-07T08:01:33;29.03;;;14.73;;
7446;SDS011;3765;47.962;7.952;2022-12-07T08:04:01;26.63;;;13.20;;
7446;SDS011;3765;47.962;7.952;2022-12-07T08:06:29;22.90;;;12.30;;
7446;SDS011;3765;47.962;7.952;2022-12-07T08:08:58;31.87;;;14.30;;
7446;SDS011;3765;47.962;7.952;2022-12-07T08:11:26;31.90;;;16.10;;
7446;SDS011;3765;47.962;7.952;2022-12-07T08:13:54;16.57;;;10.40;;
7446;SDS011;3765;47.962;7.952;2022-12-07T08:16:24;22.57;;;14.43;;
7446;SDS011;3765;47.962;7.952;2022-12-07T08:18:52;34.37;;;23.60;;
7446;SDS011;3765;47.962;7.952;2022-12-07T08:21:20;28.87;;;21.10;;
7446;SDS011;3765;47.962;7.952;2022-12-07T08:23:48;25.83;;;16.50;;
7446;SDS011;3765;47.962;7.952;2022-12-07T08:26:16;24.40;;;16.70;;
7446;SDS011;3765;47.962;7.952;2022-12-07T08:28:44;24.57;;;15.00;;
7446;SDS011;3765;47.962;7.952;2022-12-07T08:31:14;16.20;;;9.33;;
7446;SDS011;3765;47.962;7.952;2022-12-07T08:33:45;13.67;;;8.43;;
7446;SDS011;3765;47.962;7.952;2022-12-07T08:36:14;12.77;;;7.60;;
7446;SDS011;3765;47.962;7.952;2022-12-07T08:38:43;17.13;;;8.27;;
7446;SDS011;3765;47.962;7.952;2022-12-07T08:41:32;17.50;;;8.80;;
7446;SDS011;3765;47.962;7.952;2022-12-07T08:44:00;15.23;;;9.20;;
7446;SDS011;3765;47.962;7.952;2022-12-07T08:46:30;15.30;;;9.77;;
7446;SDS011;3765;47.962;7.952;2022-12-07T08:49:07;14.77;;;8.60;;
7446;SDS011;3765;47.962;7.952;2022-12-07T08:51:39;14.03;;;8.43;;
7446;SDS011;3765;47.962;7.952;2022-12-07T08:54:09;16.40;;;8.20;;
7446;SDS011;3765;47.962;7.952;2022-12-07T08:56:41;17.07;;;7.40;;
7446;SDS011;3765;47.962;7.952;2022-12-07T08:59:10;15.80;;;7.23;;
7446;SDS011;3765;47.962;7.952;2022-12-07T09:01:42;10.73;;;5.90;;
7446;SDS011;3765;47.962;7.952;2022-12-07T09:04:11;15.93;;;6.27;;
7446;SDS011;3765;47.962;7.952;2022-12-07T09:06:40;10.97;;;6.10;;
7446;SDS011;3765;47.962;7.952;2022-12-07T09:09:08;12.80;;;7.13;;
7446;SDS011;3765;47.962;7.952;2022-12-07T09:11:38;13.80;;;6.83;;
7446;SDS011;3765;47.962;7.952;2022-12-07T09:14:07;11.80;;;6.23;;
7446;SDS011;3765;47.962;7.952;2022-12-07T09:16:38;19.63;;;11.57;;
7446;SDS011;3765;47.962;7.952;2022-12-07T09:19:08;14.77;;;7.50;;
7446;SDS011;3765;47.962;7.952;2022-12-07T09:21:39;10.00;;;5.20;;
7446;SDS011;3765;47.962;7.952;2022-12-07T09:24:07;8.87;;;4.30;;
7446;SDS011;3765;47.962;7.952;2022-12-07T09:26:51;9.00;;;4.27;;
7446;SDS011;3765;47.962;7.952;2022-12-07T09:29:22;9.47;;;4.97;;
7446;SDS011;3765;47.962;7.952;2022-12-07T09:31:50;13.43;;;5.17;;
7446;SDS011;3765;47.962;7.952;2022-12-07T09:34:20;10.70;;;5.23;;
7446;SDS011;3765;47.962;7.952;2022-12-07T09:36:50;11.00;;;5.53;;
7446;SDS011;3765;47.962;7.952;2022-12-07T09:39:18;10.20;;;4.90;;
7446;SDS011;3765;47.962;7.952;2022-12-07T09:41:46;8.97;;;4.77;;
7446;SDS011;3765;47.962;7.952;2022-12-07T09:44:17;11.10;;;5.70;;
7446;SDS011;3765;47.962;7.952;2022-12-07T09:46:50;10.87;;;4.87;;
7446;SDS011;3765;47.962;7.952;2022-12-07T09:49:20;9.70;;;5.33;;
7446;SDS011;3765;47.962;7.952;2022-12-07T09:51:59;9.97;;;5.57;;
7446;SDS011;3765;47.962;7.952;2022-12-07T09:54:45;8.33;;;4.40;;
7446;SDS011;3765;47.962;7.952;2022-12-07T09:57:15;9.57;;;4.53;;
7446;SDS011;3765;47.962;7.952;2022-12-07T09:59:44;9.57;;;5.23;;
7446;SDS011;3765;47.962;7.952;2022-12-07T10:02:24;12.27;;;5.67;;
7446;SDS011;3765;47.962;7.952;2022-12-07T10:05:00;10.30;;;4.33;;
7446;SDS011;3765;47.962;7.952;2022-12-07T10:07:36;8.50;;;4.20;;
7446;SDS011;3765;47.962;7.952;2022-12-07T10:10:05;13.00;;;7.50;;
7446;SDS011;3765;47.962;7.952;2022-12-07T10:12:52;12.20;;;7.10;;
7446;SDS011;3765;47.962;7.952;2022-12-07T10:15:21;13.47;;;8.00;;
7446;SDS011;3765;47.962;7.952;2022-12-07T10:17:51;8.07;;;3.50;;
7446;SDS011;3765;47.962;7.952;2022-12-07T10:20:24;8.90;;;3.90;;
7446;SDS011;3765;47.962;7.952;2022-12-07T10:23:03;9.47;;;4.40;;
7446;SDS011;3765;47.962;7.952;2022-12-07T10:25:33;11.87;;;6.30;;
7446;SDS011;3765;47.962;7.952;2022-12-07T10:28:11;11.50;;;5.30;;
7446;SDS011;3765;47.962;7.952;2022-12-07T10:30:48;10.53;;;4.83;;
7446;SDS011;3765;47.962;7.952;2022-12-07T10:33:29;11.17;;;5.13;;
7446;SDS011;3765;47.962;7.952;2022-12-07T10:35:59;10.33;;;5.10;;
7446;SDS011;3765;47.962;7.952;2022-12-07T10:38:29;10.80;;;5.50;;
7446;SDS011;3765;47.962;7.952;2022-12-07T10:41:05;10.43;;;5.00;;
7446;SDS011;3765;47.962;7.952;2022-12-07T10:43:34;13.90;;;5.40;;
7446;SDS011;3765;47.962;7.952;2022-12-07T10:49:21;10.33;;;4.43;;
7446;SDS011;3765;47.962;7.952;2022-12-07T10:52:13;10.60;;;5.67;;
7446;SDS011;3765;47.962;7.952;2022-12-07T10:54:55;10.63;;;4.97;;
7446;SDS011;3765;47.962;7.952;2022-12-07T10:57:39;10.50;;;5.13;;
7446;SDS011;3765;47.962;7.952;2022-12-07T11:00:16;11.90;;;5.40;;
7446;SDS011;3765;47.962;7.952;2022-12-07T11:02:50;10.93;;;4.97;;
7446;SDS011;3765;47.962;7.952;2022-12-07T11:05:44;10.53;;;4.43;;
7446;SDS011;3765;47.962;7.952;2022-12-07T11:08:18;11.43;;;5.20;;
7446;SDS011;3765;47.962;7.952;2022-12-07T11:10:55;10.57;;;4.33;;
7446;SDS011;3765;47.962;7.952;2022-12-07T11:13:28;11.40;;;4.37;;
7446;SDS011;3765;47.962;7.952;2022-12-07T11:16:02;9.67;;;4.40;;
7446;SDS011;3765;47.962;7.952;2022-12-07T11:19:06;11.57;;;6.80;;
7446;SDS011;3765;47.962;7.952;2022-12-07T11:21:57;23.50;;;11.73;;
7446;SDS011;3765;47.962;7.952;2022-12-07T11:24:27;63.63;;;43.77;;
7446;SDS011;3765;47.962;7.952;2022-12-07T11:27:10;17.10;;;8.87;;
7446;SDS011;3765;47.962;7.952;2022-12-07T11:29:47;9.83;;;5.00;;
7446;SDS011;3765;47.962;7.952;2022-12-07T11:32:25;11.20;;;4.73;;
7446;SDS011;3765;47.962;7.952;2022-12-07T11:35:11;15.23;;;4.20;;
7446;SDS011;3765;47.962;7.952;2022-12-07T11:37:51;9.00;;;3.67;;
7446;SDS011;3765;47.962;7.952;2022-12-07T11:40:26;8.80;;;3.60;;
7446;SDS011;3765;47.962;7.952;2022-12-07T11:42:59;9.57;;;4.23;;
7446;SDS011;3765;47.962;7.952;2022-12-07T11:45:32;9.53;;;4.27;;
7446;SDS011;3765;47.962;7.952;2022-12-07T11:48:04;9.87;;;4.90;;
7446;SDS011;3765;47.962;7.952;2022-12-07T11:50:40;14.83;;;4.17;;
7446;SDS011;3765;47.962;7.952;2022-12-07T11:53:17;10.13;;;4.73;;
7446;SDS011;3765;47.962;7.952;2022-12-07T11:55:51;8.67;;;3.77;;
7446;SDS011;3765;47.962;7.952;2022-12-07T11:58:30;9.20;;;4.17;;
7446;SDS011;3765;47.962;7.952;2022-12-07T12:01:13;13.20;;;7.33;;
7446;SDS011;3765;47.962;7.952;2022-12-07T12:03:50;12.30;;;4.90;;
7446;SDS011;3765;47.962;7.952;2022-12-07T12:06:20;12.47;;;6.50;;
7446;SDS011;3765;47.962;7.952;2022-12-07T12:08:50;8.30;;;3.60;;
7446;SDS011;3765;47.962;7.952;2022-12-07T12:11:47;8.30;;;3.47;;
7446;SDS011;3765;47.962;7.952;2022-12-07T12:14:53;15.73;;;4.07;;
7446;SDS011;3765;47.962;7.952;2022-12-07T12:17:47;10.30;;;4.40;;
7446;SDS011;3765;47.962;7.952;2022-12-07T12:20:40;8.73;;;4.30;;
7446;SDS011;3765;47.962;7.952;2022-12-07T12:23:11;13.00;;;3.87;;
7446;SDS011;3765;47.962;7.952;2022-12-07T12:25:45;8.77;;;3.83;;
7446;SDS011;3765;47.962;7.952;2022-12-07T12:28:20;10.07;;;3.60;;
7446;SDS011;3765;47.962;7.952;2022-12-07T12:31:05;11.10;;;4.97;;
7446;SDS011;3765;47.962;7.952;2022-12-07T12:33:36;8.30;;;3.57;;
7446;SDS011;3765;47.962;7.952;2022-12-07T12:36:23;10.40;;;4.10;;
7446;SDS011;3765;47.962;7.952;2022-12-07T12:41:58;7.90;;;3.10;;
7446;SDS011;3765;47.962;7.952;2022-12-07T12:50:33;7.60;;;2.90;;
7446;SDS011;3765;47.962;7.952;2022-12-07T12:53:03;13.53;;;3.57;;
7446;SDS011;3765;47.962;7.952;2022-12-07T12:58:54;7.97;;;3.03;;
7446;SDS011;3765;47.962;7.952;2022-12-07T13:01:56;8.50;;;3.50;;
7446;SDS011;3765;47.962;7.952;2022-12-07T13:04:47;8.80;;;4.03;;
7446;SDS011;3765;47.962;7.952;2022-12-07T13:10:29;12.70;;;5.60;;
7446;SDS011;3765;47.962;7.952;2022-12-07T13:13:05;10.73;;;5.03;;
7446;SDS011;3765;47.962;7.952;2022-12-07T13:18:59;8.40;;;3.53;;
7446;SDS011;3765;47.962;7.952;2022-12-07T13:24:20;8.40;;;4.00;;
7446;SDS011;3765;47.962;7.952;2022-12-07T13:26:48;71.87;;;36.60;;
7446;SDS011;3765;47.962;7.952;2022-12-07T13:29:24;41.53;;;28.40;;
7446;SDS011;3765;47.962;7.952;2022-12-07T13:31:53;13.03;;;6.40;;
7446;SDS011;3765;47.962;7.952;2022-12-07T13:34:27;11.67;;;6.23;;
7446;SDS011;3765;47.962;7.952;2022-12-07T13:36:58;19.00;;;11.17;;
7446;SDS011;3765;47.962;7.952;2022-12-07T13:39:28;11.90;;;5.70;;
7446;SDS011;3765;47.962;7.952;2022-12-07T13:41:57;10.50;;;5.33;;
7446;SDS011;3765;47.962;7.952;2022-12-07T13:44:28;12.97;;;5.63;;
7446;SDS011;3765;47.962;7.952;2022-12-07T13:47:09;59.50;;;33.93;;
7446;SDS011;3765;47.962;7.952;2022-12-07T13:49:46;24.80;;;13.57;;
7446;SDS011;3765;47.962;7.952;2022-12-07T13:52:23;11.70;;;5.70;;
7446;SDS011;3765;47.962;7.952;2022-12-07T13:54:55;14.40;;;7.03;;
7446;SDS011;3765;47.962;7.952;2022-12-07T13:57:25;11.70;;;5.53;;
7446;SDS011;3765;47.962;7.952;2022-12-07T13:59:55;11.40;;;6.27;;
7446;SDS011;3765;47.962;7.952;2022-12-07T14:02:26;14.00;;;6.80;;
7446;SDS011;3765;47.962;7.952;2022-12-07T14:05:07;10.03;;;4.93;;
7446;SDS011;3765;47.962;7.952;2022-12-07T14:07:52;11.07;;;5.40;;
7446;SDS011;3765;47.962;7.952;2022-12-07T14:10:23;10.13;;;3.47;;
7446;SDS011;3765;47.962;7.952;2022-12-07T14:12:53;9.40;;;3.80;;
7446;SDS011;3765;47.962;7.952;2022-12-07T14:15:22;8.80;;;4.40;;
7446;SDS011;3765;47.962;7.952;2022-12-07T14:17:53;9.50;;;4.10;;
7446;SDS011;3765;47.962;7.952;2022-12-07T14:20:29;9.17;;;4.07;;
7446;SDS011;3765;47.962;7.952;2022-12-07T14:23:00;19.50;;;8.30;;
7446;SDS011;3765;47.962;7.952;2022-12-07T14:25:44;13.17;;;6.23;;
7446;SDS011;3765;47.962;7.952;2022-12-07T14:28:26;17.00;;;7.40;;
7446;SDS011;3765;47.962;7.952;2022-12-07T14:30:56;15.90;;;8.50;;
7446;SDS011;3765;47.962;7.952;2022-12-07T14:33:24;15.97;;;10.23;;
7446;SDS011;3765;47.962;7.952;2022-12-07T14:35:53;12.97;;;6.77;;
7446;SDS011;3765;47.962;7.952;2022-12-07T14:38:25;15.20;;;7.20;;
7446;SDS011;3765;47.962;7.952;2022-12-07T14:40:54;19.13;;;13.33;;
7446;SDS011;3765;47.962;7.952;2022-12-07T14:43:43;14.20;;;5.80;;
7446;SDS011;3765;47.962;7.952;2022-12-07T14:46:31;15.80;;;10.20;;
7446;SDS011;3765;47.962;7.952;2022-12-07T14:49:00;14.93;;;8.33;;
7446;SDS011;3765;47.962;7.952;2022-12-07T14:51:48;18.93;;;5.10;;
7446;SDS011;3765;47.962;7.952;2022-12-07T14:54:38;12.90;;;5.83;;
7446;SDS011;3765;47.962;7.952;2022-12-07T14:57:07;10.50;;;5.47;;
7446;SDS011;3765;47.962;7.952;2022-12-07T14:59:35;12.03;;;5.17;;
7446;SDS011;3765;47.962;7.952;2022-12-07T15:02:10;11.53;;;4.43;;
7446;SDS011;3765;47.962;7.952;2022-12-07T15:04:41;12.13;;;5.00;;
7446;SDS011;3765;47.962;7.952;2022-12-07T15:07:14;12.13;;;4.60;;
7446;SDS011;3765;47.962;7.952;2022-12-07T15:09:47;10.27;;;4.30;;
7446;SDS011;3765;47.962;7.952;2022-12-07T15:12:15;18.00;;;9.13;;
7446;SDS011;3765;47.962;7.952;2022-12-07T15:14:44;11.93;;;4.90;;
7446;SDS011;3765;47.962;7.952;2022-12-07T15:17:12;10.87;;;5.37;;
7446;SDS011;3765;47.962;7.952;2022-12-07T15:19:56;10.23;;;4.40;;
7446;SDS011;3765;47.962;7.952;2022-12-07T15:22:25;16.80;;;4.27;;
7446;SDS011;3765;47.962;7.952;2022-12-07T15:24:54;10.63;;;4.53;;
7446;SDS011;3765;47.962;7.952;2022-12-07T15:27:22;12.20;;;5.30;;
7446;SDS011;3765;47.962;7.952;2022-12-07T15:29:51;12.10;;;5.20;;
7446;SDS011;3765;47.962;7.952;2022-12-07T15:32:20;9.17;;;4.10;;
7446;SDS011;3765;47.962;7.952;2022-12-07T15:34:49;11.17;;;4.37;;
7446;SDS011;3765;47.962;7.952;2022-12-07T15:37:17;11.30;;;4.83;;
7446;SDS011;3765;47.962;7.952;2022-12-07T15:39:46;12.60;;;6.43;;
7446;SDS011;3765;47.962;7.952;2022-12-07T15:42:15;16.03;;;4.80;;
7446;SDS011;3765;47.962;7.952;2022-12-07T15:44:43;13.50;;;4.63;;
7446;SDS011;3765;47.962;7.952;2022-12-07T15:47:30;10.90;;;5.10;;
7446;SDS011;3765;47.962;7.952;2022-12-07T15:50:19;20.20;;;5.53;;
7446;SDS011;3765;47.962;7.952;2022-12-07T15:52:47;18.73;;;5.57;;
7446;SDS011;3765;47.962;7.952;2022-12-07T15:55:15;10.83;;;5.27;;